sensor_id;sensor_type;location;lat;lon;timestamp;temperature;humidity
11304;DHT22;5707;49.588;12.148;2023-04-02T00:00:17;7.30;99.90
11304;DHT22;5707;49.588;12.148;2023-04-02T00:07:43;7.40;99.90
11304;DHT22;5707;49.588;12.148;2023-04-02T00:15:42;7.30;99.90
11304;DHT22;5707;49.588;12.148;2023-04-02T00:18:16;7.30;99.90
11304;DHT22;5707;49.588;12.148;2023-04-02T00:20:49;7.30;99.90
11304;DHT22;5707;49.588;12.148;2023-04-02T00:23:16;7.30;99.90
11304;DHT22;5707;49.588;12.148;2023-04-02T00:25:43;7.30;99.90
11304;DHT22;5707;49.588;12.148;2023-04-02T00:28:15;7.30;99.90
11304;DHT22;5707;49.588;12.148;2023-04-02T00:30:46;7.30;99.90
11304;DHT22;5707;49.588;12.148;2023-04-02T00:33:18;7.30;99.90
11304;DHT22;5707;49.588;12.148;2023-04-02T00:35:45;7.30;99.90
11304;DHT22;5707;49.588;12.148;2023-04-02T00:38:22;7.30;99.90
11304;DHT22;5707;49.588;12.148;2023-04-02T00:40:49;7.20;99.90
11304;DHT22;5707;49.588;12.148;2023-04-02T00:43:15;7.20;99.90
11304;DHT22;5707;49.588;12.148;2023-04-02T00:45:43;7.10;99.90
11304;DHT22;5707;49.588;12.148;2023-04-02T00:48:45;7.10;99.90
11304;DHT22;5707;49.588;12.148;2023-04-02T00:51:27;7.10;99.90
11304;DHT22;5707;49.588;12.148;2023-04-02T00:53:56;7.00;99.90
11304;DHT22;5707;49.588;12.148;2023-04-02T00:56:30;7.00;99.90
11304;DHT22;5707;49.588;12.148;2023-04-02T00:58:58;7.00;99.90
11304;DHT22;5707;49.588;12.148;2023-04-02T01:01:27;7.00;99.90
11304;DHT22;5707;49.588;12.148;2023-04-02T01:04:00;7.00;99.90
11304;DHT22;5707;49.588;12.148;2023-04-02T01:06:32;7.00;99.90
11304;DHT22;5707;49.588;12.148;2023-04-02T01:12:09;6.90;99.90
11304;DHT22;5707;49.588;12.148;2023-04-02T01:17:32;6.90;99.90
11304;DHT22;5707;49.588;12.148;2023-04-02T01:25:47;6.90;99.90
11304;DHT22;5707;49.588;12.148;2023-04-02T01:30:51;6.90;99.90
11304;DHT22;5707;49.588;12.148;2023-04-02T01:33:32;6.90;99.90
11304;DHT22;5707;49.588;12.148;2023-04-02T01:36:53;6.90;99.90
11304;DHT22;5707;49.588;12.148;2023-04-02T01:41:35;7.00;99.90
11304;DHT22;5707;49.588;12.148;2023-04-02T01:44:22;7.00;99.90
11304;DHT22;5707;49.588;12.148;2023-04-02T01:46:49;7.00;99.90
11304;DHT22;5707;49.588;12.148;2023-04-02T01:49:19;7.00;99.90
11304;DHT22;5707;49.588;12.148;2023-04-02T01:51:51;7.00;99.90
11304;DHT22;5707;49.588;12.148;2023-04-02T01:54:18;7.00;99.90
11304;DHT22;5707;49.588;12.148;2023-04-02T01:56:44;7.00;99.90
11304;DHT22;5707;49.588;12.148;2023-04-02T01:59:11;6.90;99.90
11304;DHT22;5707;49.588;12.148;2023-04-02T02:01:44;6.90;99.90
11304;DHT22;5707;49.588;12.148;2023-04-02T02:04:12;6.90;99.90
11304;DHT22;5707;49.588;12.148;2023-04-02T02:06:39;6.90;99.90
11304;DHT22;5707;49.588;12.148;2023-04-02T02:09:06;6.90;99.90
11304;DHT22;5707;49.588;12.148;2023-04-02T02:11:32;6.90;99.90
11304;DHT22;5707;49.588;12.148;2023-04-02T02:14:07;6.90;99.90
11304;DHT22;5707;49.588;12.148;2023-04-02T02:16:37;6.90;99.90
11304;DHT22;5707;49.588;12.148;2023-04-02T02:19:12;7.00;99.90
11304;DHT22;5707;49.588;12.148;2023-04-02T02:21:44;6.90;99.90
11304;DHT22;5707;49.588;12.148;2023-04-02T02:24:19;7.00;99.90
11304;DHT22;5707;49.588;12.148;2023-04-02T02:26:50;6.90;99.90
11304;DHT22;5707;49.588;12.148;2023-04-02T02:29:19;6.90;99.90
11304;DHT22;5707;49.588;12.148;2023-04-02T02:31:51;6.90;99.90
11304;DHT22;5707;49.588;12.148;2023-04-02T02:34:22;6.90;99.90
11304;DHT22;5707;49.588;12.148;2023-04-02T02:36:53;6.90;99.90
11304;DHT22;5707;49.588;12.148;2023-04-02T02:39:28;6.90;99.90
11304;DHT22;5707;49.588;12.148;2023-04-02T02:42:03;7.00;99.90
11304;DHT22;5707;49.588;12.148;2023-04-02T02:44:35;7.00;99.90
11304;DHT22;5707;49.588;12.148;2023-04-02T02:49:33;7.00;99.90
11304;DHT22;5707;49.588;12.148;2023-04-02T02:52:21;7.00;99.90
11304;DHT22;5707;49.588;12.148;2023-04-02T02:55:13;7.00;99.90
11304;DHT22;5707;49.588;12.148;2023-04-02T03:00:39;7.00;99.90
11304;DHT22;5707;49.588;12.148;2023-04-02T03:03:11;7.00;99.90
11304;DHT22;5707;49.588;12.148;2023-04-02T03:05:39;7.00;99.90
11304;DHT22;5707;49.588;12.148;2023-04-02T03:08:13;7.00;99.90
11304;DHT22;5707;49.588;12.148;2023-04-02T03:13:30;7.00;99.90
11304;DHT22;5707;49.588;12.148;2023-04-02T03:18:34;7.00;99.90
11304;DHT22;5707;49.588;12.148;2023-04-02T03:23:46;7.00;99.90
11304;DHT22;5707;49.588;12.148;2023-04-02T03:26:39;7.00;99.90
11304;DHT22;5707;49.588;12.148;2023-04-02T03:29:15;7.00;99.90
11304;DHT22;5707;49.588;12.148;2023-04-02T03:31:48;7.00;99.90
11304;DHT22;5707;49.588;12.148;2023-04-02T03:36:53;7.00;99.90
11304;DHT22;5707;49.588;12.148;2023-04-02T03:39:41;7.00;99.90
11304;DHT22;5707;49.588;12.148;2023-04-02T03:42:11;7.00;99.90
11304;DHT22;5707;49.588;12.148;2023-04-02T03:44:54;7.00;99.90
11304;DHT22;5707;49.588;12.148;2023-04-02T03:47:33;7.00;99.90
11304;DHT22;5707;49.588;12.148;2023-04-02T03:50:06;7.00;99.90
11304;DHT22;5707;49.588;12.148;2023-04-02T03:52:35;7.00;99.90
11304;DHT22;5707;49.588;12.148;2023-04-02T03:55:10;7.00;99.90
11304;DHT22;5707;49.588;12.148;2023-04-02T04:00:19;7.00;99.90
11304;DHT22;5707;49.588;12.148;2023-04-02T04:02:50;7.00;99.90
11304;DHT22;5707;49.588;12.148;2023-04-02T04:05:29;7.00;99.90
11304;DHT22;5707;49.588;12.148;2023-04-02T04:08:04;7.00;99.90
11304;DHT22;5707;49.588;12.148;2023-04-02T04:10:31;7.00;99.90
11304;DHT22;5707;49.588;12.148;2023-04-02T04:13:04;7.00;99.90
11304;DHT22;5707;49.588;12.148;2023-04-02T04:15:41;7.10;99.90
11304;DHT22;5707;49.588;12.148;2023-04-02T04:18:31;7.10;99.90
11304;DHT22;5707;49.588;12.148;2023-04-02T04:21:19;7.10;99.90
11304;DHT22;5707;49.588;12.148;2023-04-02T04:23:58;7.10;99.90
11304;DHT22;5707;49.588;12.148;2023-04-02T04:26:35;7.10;99.90
11304;DHT22;5707;49.588;12.148;2023-04-02T04:34:28;7.10;99.90
11304;DHT22;5707;49.588;12.148;2023-04-02T04:36:59;7.00;99.90
11304;DHT22;5707;49.588;12.148;2023-04-02T04:39:46;7.00;99.90
11304;DHT22;5707;49.588;12.148;2023-04-02T04:42:23;7.10;99.90
11304;DHT22;5707;49.588;12.148;2023-04-02T04:44:59;7.00;99.90
11304;DHT22;5707;49.588;12.148;2023-04-02T04:47:40;7.10;99.90
11304;DHT22;5707;49.588;12.148;2023-04-02T04:50:12;7.10;99.90
11304;DHT22;5707;49.588;12.148;2023-04-02T04:52:41;7.10;99.90
11304;DHT22;5707;49.588;12.148;2023-04-02T04:55:33;7.10;99.90
11304;DHT22;5707;49.588;12.148;2023-04-02T04:58:03;7.10;99.90
11304;DHT22;5707;49.588;12.148;2023-04-02T05:00:41;7.10;99.90
11304;DHT22;5707;49.588;12.148;2023-04-02T05:03:16;7.20;99.90
11304;DHT22;5707;49.588;12.148;2023-04-02T05:05:46;7.10;99.90
11304;DHT22;5707;49.588;12.148;2023-04-02T05:08:25;7.20;99.90
11304;DHT22;5707;49.588;12.148;2023-04-02T05:10:58;7.20;99.90
11304;DHT22;5707;49.588;12.148;2023-04-02T05:13:43;7.30;99.90
11304;DHT22;5707;49.588;12.148;2023-04-02T05:18:55;7.40;99.90
11304;DHT22;5707;49.588;12.148;2023-04-02T05:21:31;7.50;99.90
11304;DHT22;5707;49.588;12.148;2023-04-02T05:24:38;7.50;99.90
11304;DHT22;5707;49.588;12.148;2023-04-02T05:30:12;7.60;99.90
11304;DHT22;5707;49.588;12.148;2023-04-02T05:32:46;7.60;99.90
11304;DHT22;5707;49.588;12.148;2023-04-02T05:35:16;7.70;99.90
11304;DHT22;5707;49.588;12.148;2023-04-02T05:37:43;7.70;99.90
11304;DHT22;5707;49.588;12.148;2023-04-02T05:40:25;7.70;99.90
11304;DHT22;5707;49.588;12.148;2023-04-02T05:42:52;7.80;99.90
11304;DHT22;5707;49.588;12.148;2023-04-02T05:45:32;7.80;99.90
11304;DHT22;5707;49.588;12.148;2023-04-02T05:48:02;7.80;99.90
11304;DHT22;5707;49.588;12.148;2023-04-02T05:50:35;7.90;99.90
11304;DHT22;5707;49.588;12.148;2023-04-02T05:56:29;8.00;99.90
11304;DHT22;5707;49.588;12.148;2023-04-02T06:01:57;8.10;99.90
11304;DHT22;5707;49.588;12.148;2023-04-02T06:04:36;8.10;99.90
11304;DHT22;5707;49.588;12.148;2023-04-02T06:07:28;8.20;99.90
11304;DHT22;5707;49.588;12.148;2023-04-02T06:15:16;8.20;99.90
11304;DHT22;5707;49.588;12.148;2023-04-02T06:17:49;8.20;99.90
11304;DHT22;5707;49.588;12.148;2023-04-02T06:20:18;8.30;99.90
11304;DHT22;5707;49.588;12.148;2023-04-02T06:22:48;8.30;99.90
11304;DHT22;5707;49.588;12.148;2023-04-02T06:25:25;8.30;99.90
11304;DHT22;5707;49.588;12.148;2023-04-02T06:27:55;8.30;99.90
11304;DHT22;5707;49.588;12.148;2023-04-02T06:30:29;8.30;99.90
11304;DHT22;5707;49.588;12.148;2023-04-02T06:32:56;8.30;99.90
11304;DHT22;5707;49.588;12.148;2023-04-02T06:35:22;8.20;99.90
11304;DHT22;5707;49.588;12.148;2023-04-02T06:37:50;8.20;99.90
11304;DHT22;5707;49.588;12.148;2023-04-02T06:40:40;8.10;99.90
11304;DHT22;5707;49.588;12.148;2023-04-02T06:43:23;8.10;99.90
11304;DHT22;5707;49.588;12.148;2023-04-02T06:45:52;8.10;99.90
11304;DHT22;5707;49.588;12.148;2023-04-02T06:48:19;8.00;99.90
11304;DHT22;5707;49.588;12.148;2023-04-02T06:50:50;7.90;99.90
11304;DHT22;5707;49.588;12.148;2023-04-02T06:53:24;7.70;99.90
11304;DHT22;5707;49.588;12.148;2023-04-02T06:58:42;7.40;99.90
11304;DHT22;5707;49.588;12.148;2023-04-02T07:01:14;7.30;99.90
11304;DHT22;5707;49.588;12.148;2023-04-02T07:03:41;7.30;99.90
11304;DHT22;5707;49.588;12.148;2023-04-02T07:06:13;7.30;99.90
11304;DHT22;5707;49.588;12.148;2023-04-02T07:08:39;7.30;99.90
11304;DHT22;5707;49.588;12.148;2023-04-02T07:11:04;7.40;99.90
11304;DHT22;5707;49.588;12.148;2023-04-02T07:13:30;7.50;99.90
11304;DHT22;5707;49.588;12.148;2023-04-02T07:15:56;7.50;99.90
11304;DHT22;5707;49.588;12.148;2023-04-02T07:18:32;7.50;99.90
11304;DHT22;5707;49.588;12.148;2023-04-02T07:20:58;7.50;99.90
11304;DHT22;5707;49.588;12.148;2023-04-02T07:23:24;7.40;99.90
11304;DHT22;5707;49.588;12.148;2023-04-02T07:25:51;7.20;99.90
11304;DHT22;5707;49.588;12.148;2023-04-02T07:28:18;6.90;99.90
11304;DHT22;5707;49.588;12.148;2023-04-02T07:30:44;6.80;99.90
11304;DHT22;5707;49.588;12.148;2023-04-02T07:33:15;6.80;99.90
11304;DHT22;5707;49.588;12.148;2023-04-02T07:35:41;6.70;99.90
11304;DHT22;5707;49.588;12.148;2023-04-02T07:38:07;6.80;99.90
11304;DHT22;5707;49.588;12.148;2023-04-02T07:40:33;6.70;99.90
11304;DHT22;5707;49.588;12.148;2023-04-02T07:42:58;6.70;99.90
11304;DHT22;5707;49.588;12.148;2023-04-02T07:45:25;6.70;99.90
11304;DHT22;5707;49.588;12.148;2023-04-02T07:47:51;6.70;99.90
11304;DHT22;5707;49.588;12.148;2023-04-02T07:50:16;6.70;99.90
11304;DHT22;5707;49.588;12.148;2023-04-02T07:52:43;6.80;99.90
11304;DHT22;5707;49.588;12.148;2023-04-02T07:55:10;6.90;99.90
11304;DHT22;5707;49.588;12.148;2023-04-02T07:57:46;6.80;99.90
11304;DHT22;5707;49.588;12.148;2023-04-02T08:00:14;6.80;99.90
11304;DHT22;5707;49.588;12.148;2023-04-02T08:02:40;6.90;99.90
11304;DHT22;5707;49.588;12.148;2023-04-02T08:05:07;6.90;99.90
11304;DHT22;5707;49.588;12.148;2023-04-02T08:07:33;6.90;99.90
11304;DHT22;5707;49.588;12.148;2023-04-02T08:09:58;7.00;99.90
11304;DHT22;5707;49.588;12.148;2023-04-02T08:12:24;7.10;99.90
11304;DHT22;5707;49.588;12.148;2023-04-02T08:14:50;6.90;99.90
11304;DHT22;5707;49.588;12.148;2023-04-02T08:17:16;6.90;99.90
11304;DHT22;5707;49.588;12.148;2023-04-02T08:19:42;6.80;99.90
11304;DHT22;5707;49.588;12.148;2023-04-02T08:22:09;6.80;99.90
11304;DHT22;5707;49.588;12.148;2023-04-02T08:24:34;6.80;99.90
11304;DHT22;5707;49.588;12.148;2023-04-02T08:27:00;6.90;99.90
11304;DHT22;5707;49.588;12.148;2023-04-02T08:29:27;7.10;99.90
11304;DHT22;5707;49.588;12.148;2023-04-02T08:31:57;7.00;99.90
11304;DHT22;5707;49.588;12.148;2023-04-02T08:34:23;7.10;99.90
11304;DHT22;5707;49.588;12.148;2023-04-02T08:36:48;7.00;99.90
11304;DHT22;5707;49.588;12.148;2023-04-02T08:39:14;6.90;99.90
11304;DHT22;5707;49.588;12.148;2023-04-02T08:42:21;6.90;99.90
11304;DHT22;5707;49.588;12.148;2023-04-02T08:47:36;6.80;99.90
11304;DHT22;5707;49.588;12.148;2023-04-02T08:50:31;7.10;99.90
11304;DHT22;5707;49.588;12.148;2023-04-02T08:53:24;7.50;99.90
11304;DHT22;5707;49.588;12.148;2023-04-02T08:56:22;7.70;99.90
11304;DHT22;5707;49.588;12.148;2023-04-02T08:58:53;7.50;99.90
11304;DHT22;5707;49.588;12.148;2023-04-02T09:03:58;7.10;99.90
11304;DHT22;5707;49.588;12.148;2023-04-02T09:06:24;6.90;99.90
11304;DHT22;5707;49.588;12.148;2023-04-02T09:08:52;6.90;99.90
11304;DHT22;5707;49.588;12.148;2023-04-02T09:11:24;6.90;99.90
11304;DHT22;5707;49.588;12.148;2023-04-02T09:13:57;6.90;99.90
11304;DHT22;5707;49.588;12.148;2023-04-02T09:16:45;6.90;99.90
11304;DHT22;5707;49.588;12.148;2023-04-02T09:19:22;7.00;99.90
11304;DHT22;5707;49.588;12.148;2023-04-02T09:24:39;7.30;99.90
11304;DHT22;5707;49.588;12.148;2023-04-02T09:27:17;7.40;99.90
11304;DHT22;5707;49.588;12.148;2023-04-02T09:29:44;7.60;99.90
11304;DHT22;5707;49.588;12.148;2023-04-02T09:32:51;7.60;99.90
11304;DHT22;5707;49.588;12.148;2023-04-02T09:35:23;7.60;99.90
11304;DHT22;5707;49.588;12.148;2023-04-02T09:40:46;7.10;99.90
11304;DHT22;5707;49.588;12.148;2023-04-02T09:43:15;7.20;99.90
11304;DHT22;5707;49.588;12.148;2023-04-02T09:45:43;7.10;99.90
11304;DHT22;5707;49.588;12.148;2023-04-02T09:48:46;7.00;99.90
11304;DHT22;5707;49.588;12.148;2023-04-02T09:51:23;7.00;99.90
11304;DHT22;5707;49.588;12.148;2023-04-02T09:56:28;7.10;99.90
11304;DHT22;5707;49.588;12.148;2023-04-02T10:01:45;7.30;99.90
11304;DHT22;5707;49.588;12.148;2023-04-02T10:04:35;7.40;99.90
11304;DHT22;5707;49.588;12.148;2023-04-02T10:07:02;7.30;99.90
11304;DHT22;5707;49.588;12.148;2023-04-02T10:09:36;7.30;99.90
11304;DHT22;5707;49.588;12.148;2023-04-02T10:12:09;7.20;99.90
11304;DHT22;5707;49.588;12.148;2023-04-02T10:14:39;7.00;99.90
11304;DHT22;5707;49.588;12.148;2023-04-02T10:17:22;7.00;99.90
11304;DHT22;5707;49.588;12.148;2023-04-02T10:20:19;7.00;99.90
11304;DHT22;5707;49.588;12.148;2023-04-02T10:22:46;7.10;99.90
11304;DHT22;5707;49.588;12.148;2023-04-02T10:25:14;7.10;99.90
11304;DHT22;5707;49.588;12.148;2023-04-02T10:31:02;6.90;99.90
11304;DHT22;5707;49.588;12.148;2023-04-02T10:33:35;6.90;99.90
11304;DHT22;5707;49.588;12.148;2023-04-02T10:36:27;6.70;99.90
11304;DHT22;5707;49.588;12.148;2023-04-02T10:39:26;6.60;99.90
11304;DHT22;5707;49.588;12.148;2023-04-02T10:42:29;6.50;99.90
11304;DHT22;5707;49.588;12.148;2023-04-02T10:44:57;6.40;99.90
11304;DHT22;5707;49.588;12.148;2023-04-02T10:52:59;6.30;99.90
11304;DHT22;5707;49.588;12.148;2023-04-02T10:55:33;6.30;99.90
11304;DHT22;5707;49.588;12.148;2023-04-02T10:58:07;6.30;99.90
11304;DHT22;5707;49.588;12.148;2023-04-02T11:00:40;6.60;99.90
11304;DHT22;5707;49.588;12.148;2023-04-02T11:03:15;6.70;99.90
11304;DHT22;5707;49.588;12.148;2023-04-02T11:05:46;6.70;99.90
11304;DHT22;5707;49.588;12.148;2023-04-02T11:08:23;6.80;99.90
11304;DHT22;5707;49.588;12.148;2023-04-02T11:14:00;7.00;99.90
11304;DHT22;5707;49.588;12.148;2023-04-02T11:16:28;7.00;99.90
11304;DHT22;5707;49.588;12.148;2023-04-02T11:29:56;7.10;99.90
11304;DHT22;5707;49.588;12.148;2023-04-02T11:32:41;7.00;99.90
11304;DHT22;5707;49.588;12.148;2023-04-02T11:35:34;6.70;99.90
11304;DHT22;5707;49.588;12.148;2023-04-02T11:38:08;6.50;99.90
11304;DHT22;5707;49.588;12.148;2023-04-02T11:40:57;6.40;99.90
11304;DHT22;5707;49.588;12.148;2023-04-02T11:48:51;6.50;99.90
11304;DHT22;5707;49.588;12.148;2023-04-02T11:53:45;6.40;99.90
11304;DHT22;5707;49.588;12.148;2023-04-02T11:59:39;5.80;99.90
11304;DHT22;5707;49.588;12.148;2023-04-02T12:08:02;5.90;99.90
11304;DHT22;5707;49.588;12.148;2023-04-02T12:10:50;5.90;99.90
11304;DHT22;5707;49.588;12.148;2023-04-02T12:13:59;6.00;99.90
11304;DHT22;5707;49.588;12.148;2023-04-02T12:16:10;5.80;99.90
11304;DHT22;5707;49.588;12.148;2023-04-02T12:18:45;5.80;99.90
11304;DHT22;5707;49.588;12.148;2023-04-02T12:21:21;5.70;99.90
11304;DHT22;5707;49.588;12.148;2023-04-02T12:23:48;5.70;99.90
11304;DHT22;5707;49.588;12.148;2023-04-02T12:26:33;5.80;99.90
11304;DHT22;5707;49.588;12.148;2023-04-02T12:29:27;5.90;99.90
11304;DHT22;5707;49.588;12.148;2023-04-02T12:31:57;6.00;99.90
11304;DHT22;5707;49.588;12.148;2023-04-02T12:34:28;5.90;99.90
11304;DHT22;5707;49.588;12.148;2023-04-02T12:36:56;5.70;99.90
11304;DHT22;5707;49.588;12.148;2023-04-02T12:39:24;5.70;99.90
11304;DHT22;5707;49.588;12.148;2023-04-02T12:41:50;5.70;99.90
11304;DHT22;5707;49.588;12.148;2023-04-02T12:44:21;5.70;99.90
11304;DHT22;5707;49.588;12.148;2023-04-02T12:46:48;5.60;99.90
11304;DHT22;5707;49.588;12.148;2023-04-02T12:49:34;5.60;99.90
11304;DHT22;5707;49.588;12.148;2023-04-02T12:52:06;5.60;99.90
11304;DHT22;5707;49.588;12.148;2023-04-02T12:54:36;5.60;99.90
11304;DHT22;5707;49.588;12.148;2023-04-02T12:59:53;5.60;99.90
11304;DHT22;5707;49.588;12.148;2023-04-02T13:02:26;5.60;99.90
11304;DHT22;5707;49.588;12.148;2023-04-02T13:04:54;5.60;99.90
11304;DHT22;5707;49.588;12.148;2023-04-02T13:07:22;5.70;99.90
11304;DHT22;5707;49.588;12.148;2023-04-02T13:09:54;5.80;99.90
11304;DHT22;5707;49.588;12.148;2023-04-02T13:14:52;6.00;99.90
11304;DHT22;5707;49.588;12.148;2023-04-02T13:20:28;6.10;99.90
11304;DHT22;5707;49.588;12.148;2023-04-02T13:22:54;6.20;99.90
11304;DHT22;5707;49.588;12.148;2023-04-02T13:25:27;6.20;99.90
11304;DHT22;5707;49.588;12.148;2023-04-02T13:27:52;6.30;99.90
11304;DHT22;5707;49.588;12.148;2023-04-02T13:30:22;6.40;99.90
11304;DHT22;5707;49.588;12.148;2023-04-02T13:32:48;6.60;99.90
11304;DHT22;5707;49.588;12.148;2023-04-02T13:35:14;7.00;99.90
11304;DHT22;5707;49.588;12.148;2023-04-02T13:37:40;7.30;99.90
11304;DHT22;5707;49.588;12.148;2023-04-02T13:40:06;7.30;99.90
11304;DHT22;5707;49.588;12.148;2023-04-02T13:42:32;7.20;99.90
11304;DHT22;5707;49.588;12.148;2023-04-02T13:44:58;7.50;99.90
11304;DHT22;5707;49.588;12.148;2023-04-02T13:47:23;7.80;99.90
11304;DHT22;5707;49.588;12.148;2023-04-02T13:49:49;8.00;99.90
11304;DHT22;5707;49.588;12.148;2023-04-02T13:52:15;8.20;99.90
11304;DHT22;5707;49.588;12.148;2023-04-02T13:54:54;8.20;99.90
11304;DHT22;5707;49.588;12.148;2023-04-02T13:57:22;8.40;99.90
11304;DHT22;5707;49.588;12.148;2023-04-02T13:59:48;8.60;99.90
11304;DHT22;5707;49.588;12.148;2023-04-02T14:02:19;8.40;99.90
11304;DHT22;5707;49.588;12.148;2023-04-02T14:04:51;8.50;99.90
11304;DHT22;5707;49.588;12.148;2023-04-02T14:08:25;8.40;99.90
11304;DHT22;5707;49.588;12.148;2023-04-02T14:10:40;8.40;99.90
11304;DHT22;5707;49.588;12.148;2023-04-02T14:15:52;8.20;99.90
11304;DHT22;5707;49.588;12.148;2023-04-02T14:21:45;7.90;99.90
11304;DHT22;5707;49.588;12.148;2023-04-02T14:24:35;7.90;99.90
11304;DHT22;5707;49.588;12.148;2023-04-02T14:29:43;8.30;99.90
11304;DHT22;5707;49.588;12.148;2023-04-02T14:32:24;8.50;99.90
11304;DHT22;5707;49.588;12.148;2023-04-02T14:40:10;7.90;99.90
11304;DHT22;5707;49.588;12.148;2023-04-02T14:42:59;7.80;99.90
11304;DHT22;5707;49.588;12.148;2023-04-02T14:48:40;8.00;99.90
11304;DHT22;5707;49.588;12.148;2023-04-02T14:51:14;8.60;99.90
11304;DHT22;5707;49.588;12.148;2023-04-02T14:56:37;8.30;99.90
11304;DHT22;5707;49.588;12.148;2023-04-02T14:59:16;8.00;99.90
11304;DHT22;5707;49.588;12.148;2023-04-02T15:01:44;7.70;99.90
11304;DHT22;5707;49.588;12.148;2023-04-02T15:04:34;7.60;99.90
11304;DHT22;5707;49.588;12.148;2023-04-02T15:07:08;7.50;99.90
11304;DHT22;5707;49.588;12.148;2023-04-02T15:09:43;7.50;99.90
11304;DHT22;5707;49.588;12.148;2023-04-02T15:14:49;7.40;99.90
11304;DHT22;5707;49.588;12.148;2023-04-02T15:17:19;7.60;99.90
11304;DHT22;5707;49.588;12.148;2023-04-02T15:19:45;7.60;99.90
11304;DHT22;5707;49.588;12.148;2023-04-02T15:22:31;7.50;99.90
11304;DHT22;5707;49.588;12.148;2023-04-02T15:25:12;7.30;99.90
11304;DHT22;5707;49.588;12.148;2023-04-02T15:28:03;7.20;99.90
11304;DHT22;5707;49.588;12.148;2023-04-02T15:30:41;7.20;99.90
11304;DHT22;5707;49.588;12.148;2023-04-02T15:38:48;7.30;99.90
11304;DHT22;5707;49.588;12.148;2023-04-02T15:41:24;7.10;99.90
11304;DHT22;5707;49.588;12.148;2023-04-02T15:44:07;7.10;99.90
11304;DHT22;5707;49.588;12.148;2023-04-02T15:50:53;6.80;99.90
11304;DHT22;5707;49.588;12.148;2023-04-02T15:53:14;6.40;99.90
11304;DHT22;5707;49.588;12.148;2023-04-02T15:58:57;6.20;99.90
11304;DHT22;5707;49.588;12.148;2023-04-02T16:01:31;6.10;99.90
11304;DHT22;5707;49.588;12.148;2023-04-02T16:04:40;6.00;99.90
11304;DHT22;5707;49.588;12.148;2023-04-02T16:07:22;5.80;99.90
11304;DHT22;5707;49.588;12.148;2023-04-02T16:12:39;5.50;99.90
11304;DHT22;5707;49.588;12.148;2023-04-02T16:18:08;5.40;99.90
11304;DHT22;5707;49.588;12.148;2023-04-02T16:20:40;5.40;99.90
11304;DHT22;5707;49.588;12.148;2023-04-02T16:23:12;5.40;99.90
11304;DHT22;5707;49.588;12.148;2023-04-02T16:25:51;5.30;99.90
11304;DHT22;5707;49.588;12.148;2023-04-02T16:28:37;5.20;99.90
11304;DHT22;5707;49.588;12.148;2023-04-02T16:31:15;5.10;99.90
11304;DHT22;5707;49.588;12.148;2023-04-02T16:36:44;5.00;99.90
11304;DHT22;5707;49.588;12.148;2023-04-02T16:39:22;4.90;99.90
11304;DHT22;5707;49.588;12.148;2023-04-02T16:50:33;4.90;99.90
11304;DHT22;5707;49.588;12.148;2023-04-02T16:53:34;4.80;99.90
11304;DHT22;5707;49.588;12.148;2023-04-02T17:02:01;4.70;99.90
11304;DHT22;5707;49.588;12.148;2023-04-02T17:04:51;4.60;99.90
11304;DHT22;5707;49.588;12.148;2023-04-02T17:09:51;4.50;99.90
11304;DHT22;5707;49.588;12.148;2023-04-02T17:12:43;4.50;99.90
11304;DHT22;5707;49.588;12.148;2023-04-02T17:15:20;4.40;99.90
11304;DHT22;5707;49.588;12.148;2023-04-02T17:17:47;4.40;99.90
11304;DHT22;5707;49.588;12.148;2023-04-02T17:20:21;4.40;99.90
11304;DHT22;5707;49.588;12.148;2023-04-02T17:22:47;4.30;99.90
11304;DHT22;5707;49.588;12.148;2023-04-02T17:25:29;4.30;99.90
11304;DHT22;5707;49.588;12.148;2023-04-02T17:27:56;4.20;99.90
11304;DHT22;5707;49.588;12.148;2023-04-02T17:30:38;4.20;99.90
11304;DHT22;5707;49.588;12.148;2023-04-02T17:33:13;4.20;99.90
11304;DHT22;5707;49.588;12.148;2023-04-02T17:42:08;4.10;99.90
11304;DHT22;5707;49.588;12.148;2023-04-02T17:45:05;4.00;99.90
11304;DHT22;5707;49.588;12.148;2023-04-02T17:47:43;3.90;99.90
11304;DHT22;5707;49.588;12.148;2023-04-02T17:53:10;3.80;99.90
11304;DHT22;5707;49.588;12.148;2023-04-02T18:02:00;3.70;99.90
11304;DHT22;5707;49.588;12.148;2023-04-02T18:04:40;3.60;99.90
11304;DHT22;5707;49.588;12.148;2023-04-02T18:07:23;3.60;99.90
11304;DHT22;5707;49.588;12.148;2023-04-02T18:15:57;3.50;99.90
11304;DHT22;5707;49.588;12.148;2023-04-02T18:18:41;3.60;99.90
11304;DHT22;5707;49.588;12.148;2023-04-02T18:21:30;3.50;99.90
11304;DHT22;5707;49.588;12.148;2023-04-02T18:27:01;3.50;99.90
11304;DHT22;5707;49.588;12.148;2023-04-02T18:38:16;3.40;99.90
11304;DHT22;5707;49.588;12.148;2023-04-02T18:46:33;3.40;99.90
11304;DHT22;5707;49.588;12.148;2023-04-02T18:51:46;3.40;99.90
11304;DHT22;5707;49.588;12.148;2023-04-02T18:54:25;3.40;99.90
11304;DHT22;5707;49.588;12.148;2023-04-02T18:56:53;3.40;99.90
11304;DHT22;5707;49.588;12.148;2023-04-02T19:04:57;3.30;99.90
11304;DHT22;5707;49.588;12.148;2023-04-02T19:07:26;3.30;99.90
11304;DHT22;5707;49.588;12.148;2023-04-02T19:09:55;3.30;99.90
11304;DHT22;5707;49.588;12.148;2023-04-02T19:12:23;3.30;99.90
11304;DHT22;5707;49.588;12.148;2023-04-02T19:14:49;3.30;99.90
11304;DHT22;5707;49.588;12.148;2023-04-02T19:17:30;3.30;99.90
11304;DHT22;5707;49.588;12.148;2023-04-02T19:25:17;3.30;99.90
11304;DHT22;5707;49.588;12.148;2023-04-02T19:44:50;3.20;99.90
11304;DHT22;5707;49.588;12.148;2023-04-02T19:47:18;3.20;99.90
11304;DHT22;5707;49.588;12.148;2023-04-02T19:49:44;3.20;99.90
11304;DHT22;5707;49.588;12.148;2023-04-02T19:52:10;3.20;99.90
11304;DHT22;5707;49.588;12.148;2023-04-02T19:54:36;3.10;99.90
11304;DHT22;5707;49.588;12.148;2023-04-02T19:57:02;3.20;99.90
11304;DHT22;5707;49.588;12.148;2023-04-02T19:59:27;3.20;99.90
11304;DHT22;5707;49.588;12.148;2023-04-02T20:01:53;3.20;99.90
11304;DHT22;5707;49.588;12.148;2023-04-02T20:04:19;3.10;99.90
11304;DHT22;5707;49.588;12.148;2023-04-02T20:06:44;3.10;99.90
11304;DHT22;5707;49.588;12.148;2023-04-02T20:09:10;3.10;99.90
11304;DHT22;5707;49.588;12.148;2023-04-02T20:11:36;3.10;99.90
11304;DHT22;5707;49.588;12.148;2023-04-02T20:14:02;3.10;99.90
11304;DHT22;5707;49.588;12.148;2023-04-02T20:16:28;3.10;99.90
11304;DHT22;5707;49.588;12.148;2023-04-02T20:18:54;3.10;99.90
11304;DHT22;5707;49.588;12.148;2023-04-02T20:21:20;3.10;99.90
11304;DHT22;5707;49.588;12.148;2023-04-02T20:23:46;3.10;99.90
11304;DHT22;5707;49.588;12.148;2023-04-02T20:26:11;3.10;99.90
11304;DHT22;5707;49.588;12.148;2023-04-02T20:28:37;3.10;99.90
11304;DHT22;5707;49.588;12.148;2023-04-02T20:31:14;3.00;99.90
11304;DHT22;5707;49.588;12.148;2023-04-02T20:33:41;3.00;99.90
11304;DHT22;5707;49.588;12.148;2023-04-02T20:36:08;3.00;99.90
11304;DHT22;5707;49.588;12.148;2023-04-02T20:38:34;3.00;99.90
11304;DHT22;5707;49.588;12.148;2023-04-02T20:41:00;3.00;99.90
11304;DHT22;5707;49.588;12.148;2023-04-02T20:43:26;2.90;99.90
11304;DHT22;5707;49.588;12.148;2023-04-02T20:45:57;2.90;99.90
11304;DHT22;5707;49.588;12.148;2023-04-02T20:48:24;2.90;99.90
11304;DHT22;5707;49.588;12.148;2023-04-02T20:50:52;2.90;99.90